sensor_id;sensor_type;location;lat;lon;timestamp;temperature;humidity
12893;DHT22;6514;48.606;9.222;2024-03-25T00:01:34;4.30;99.90
12893;DHT22;6514;48.606;9.222;2024-03-25T00:04:01;4.30;99.90
12893;DHT22;6514;48.606;9.222;2024-03-25T00:06:28;4.30;99.90
12893;DHT22;6514;48.606;9.222;2024-03-25T00:08:59;4.30;99.90
12893;DHT22;6514;48.606;9.222;2024-03-25T00:11:25;4.30;99.90
12893;DHT22;6514;48.606;9.222;2024-03-25T00:13:51;5.30;99.90
12893;DHT22;6514;48.606;9.222;2024-03-25T00:16:18;4.20;99.90
12893;DHT22;6514;48.606;9.222;2024-03-25T00:18:45;4.20;99.90
12893;DHT22;6514;48.606;9.222;2024-03-25T00:21:12;4.30;99.90
12893;DHT22;6514;48.606;9.222;2024-03-25T00:23:39;4.20;99.90
12893;DHT22;6514;48.606;9.222;2024-03-25T00:26:04;4.20;99.90
12893;DHT22;6514;48.606;9.222;2024-03-25T00:28:31;4.20;99.90
12893;DHT22;6514;48.606;9.222;2024-03-25T00:30:57;4.20;99.90
12893;DHT22;6514;48.606;9.222;2024-03-25T00:33:25;4.20;99.90
12893;DHT22;6514;48.606;9.222;2024-03-25T00:35:50;4.20;99.90
12893;DHT22;6514;48.606;9.222;2024-03-25T00:38:21;4.10;99.90
12893;DHT22;6514;48.606;9.222;2024-03-25T00:40:47;4.10;99.90
12893;DHT22;6514;48.606;9.222;2024-03-25T00:43:14;4.10;99.90
12893;DHT22;6514;48.606;9.222;2024-03-25T00:45:40;4.10;99.90
12893;DHT22;6514;48.606;9.222;2024-03-25T00:48:07;4.10;99.90
12893;DHT22;6514;48.606;9.222;2024-03-25T00:50:33;4.10;99.90
12893;DHT22;6514;48.606;9.222;2024-03-25T00:53:00;4.10;99.90
12893;DHT22;6514;48.606;9.222;2024-03-25T00:55:27;4.10;99.90
12893;DHT22;6514;48.606;9.222;2024-03-25T00:57:54;4.10;99.90
12893;DHT22;6514;48.606;9.222;2024-03-25T01:00:20;4.10;99.90
12893;DHT22;6514;48.606;9.222;2024-03-25T01:02:46;4.10;99.90
12893;DHT22;6514;48.606;9.222;2024-03-25T01:05:12;4.10;99.90
12893;DHT22;6514;48.606;9.222;2024-03-25T01:07:39;4.00;99.90
12893;DHT22;6514;48.606;9.222;2024-03-25T01:10:05;4.00;99.90
12893;DHT22;6514;48.606;9.222;2024-03-25T01:12:34;4.00;99.90
12893;DHT22;6514;48.606;9.222;2024-03-25T01:15:00;4.00;99.90
12893;DHT22;6514;48.606;9.222;2024-03-25T01:17:27;4.00;99.90
12893;DHT22;6514;48.606;9.222;2024-03-25T01:19:53;4.00;99.90
12893;DHT22;6514;48.606;9.222;2024-03-25T01:22:20;4.00;99.90
12893;DHT22;6514;48.606;9.222;2024-03-25T01:24:46;4.00;99.90
12893;DHT22;6514;48.606;9.222;2024-03-25T01:27:12;3.90;99.90
12893;DHT22;6514;48.606;9.222;2024-03-25T01:29:39;3.90;99.90
12893;DHT22;6514;48.606;9.222;2024-03-25T01:32:06;3.90;99.90
12893;DHT22;6514;48.606;9.222;2024-03-25T01:34:32;3.90;99.90
12893;DHT22;6514;48.606;9.222;2024-03-25T01:36:59;3.90;99.90
12893;DHT22;6514;48.606;9.222;2024-03-25T01:39:25;3.90;99.90
12893;DHT22;6514;48.606;9.222;2024-03-25T01:41:51;3.80;99.90
12893;DHT22;6514;48.606;9.222;2024-03-25T01:44:17;3.80;99.90
12893;DHT22;6514;48.606;9.222;2024-03-25T01:46:45;3.80;99.90
12893;DHT22;6514;48.606;9.222;2024-03-25T01:49:12;3.80;99.90
12893;DHT22;6514;48.606;9.222;2024-03-25T01:51:40;3.90;99.90
12893;DHT22;6514;48.606;9.222;2024-03-25T01:54:07;3.80;99.90
12893;DHT22;6514;48.606;9.222;2024-03-25T01:56:35;3.80;99.90
12893;DHT22;6514;48.606;9.222;2024-03-25T01:59:02;3.90;99.90
12893;DHT22;6514;48.606;9.222;2024-03-25T02:01:30;3.90;99.90
12893;DHT22;6514;48.606;9.222;2024-03-25T02:03:57;3.90;99.90
12893;DHT22;6514;48.606;9.222;2024-03-25T02:06:27;3.90;99.90
12893;DHT22;6514;48.606;9.222;2024-03-25T02:08:53;3.80;99.90
12893;DHT22;6514;48.606;9.222;2024-03-25T02:11:22;3.90;99.90
12893;DHT22;6514;48.606;9.222;2024-03-25T02:13:49;3.90;99.90
12893;DHT22;6514;48.606;9.222;2024-03-25T02:16:16;3.90;99.90
12893;DHT22;6514;48.606;9.222;2024-03-25T02:18:42;3.90;99.90
12893;DHT22;6514;48.606;9.222;2024-03-25T02:21:10;3.90;99.90
12893;DHT22;6514;48.606;9.222;2024-03-25T02:23:39;3.90;99.90
12893;DHT22;6514;48.606;9.222;2024-03-25T02:26:09;3.90;99.90
12893;DHT22;6514;48.606;9.222;2024-03-25T02:28:35;3.90;99.90
12893;DHT22;6514;48.606;9.222;2024-03-25T02:31:01;3.90;99.90
12893;DHT22;6514;48.606;9.222;2024-03-25T02:33:28;3.80;99.90
12893;DHT22;6514;48.606;9.222;2024-03-25T02:35:55;3.90;99.90
12893;DHT22;6514;48.606;9.222;2024-03-25T02:38:21;3.90;99.90
12893;DHT22;6514;48.606;9.222;2024-03-25T02:40:48;3.90;99.90
12893;DHT22;6514;48.606;9.222;2024-03-25T02:43:16;3.90;99.90
12893;DHT22;6514;48.606;9.222;2024-03-25T02:45:45;3.90;99.90
12893;DHT22;6514;48.606;9.222;2024-03-25T02:48:11;3.80;99.90
12893;DHT22;6514;48.606;9.222;2024-03-25T02:50:37;3.90;99.90
12893;DHT22;6514;48.606;9.222;2024-03-25T02:53:03;3.90;99.90
12893;DHT22;6514;48.606;9.222;2024-03-25T02:55:30;3.80;99.90
12893;DHT22;6514;48.606;9.222;2024-03-25T02:57:56;3.80;99.90
12893;DHT22;6514;48.606;9.222;2024-03-25T03:00:24;3.80;99.90
12893;DHT22;6514;48.606;9.222;2024-03-25T03:02:50;3.80;99.90
12893;DHT22;6514;48.606;9.222;2024-03-25T03:05:17;3.90;99.90
12893;DHT22;6514;48.606;9.222;2024-03-25T03:07:43;3.80;99.90
12893;DHT22;6514;48.606;9.222;2024-03-25T03:10:10;3.90;99.90
12893;DHT22;6514;48.606;9.222;2024-03-25T03:12:35;3.90;99.90
12893;DHT22;6514;48.606;9.222;2024-03-25T03:15:03;3.90;99.90
12893;DHT22;6514;48.606;9.222;2024-03-25T03:17:30;3.90;99.90
12893;DHT22;6514;48.606;9.222;2024-03-25T03:19:57;3.90;99.90
12893;DHT22;6514;48.606;9.222;2024-03-25T03:22:22;3.90;99.90
12893;DHT22;6514;48.606;9.222;2024-03-25T03:24:49;3.90;99.90
12893;DHT22;6514;48.606;9.222;2024-03-25T03:27:15;3.80;99.90
12893;DHT22;6514;48.606;9.222;2024-03-25T03:29:42;3.80;99.90
12893;DHT22;6514;48.606;9.222;2024-03-25T03:32:07;3.80;99.90
12893;DHT22;6514;48.606;9.222;2024-03-25T03:34:36;3.90;99.90
12893;DHT22;6514;48.606;9.222;2024-03-25T03:37:01;4.40;99.90
12893;DHT22;6514;48.606;9.222;2024-03-25T03:39:28;3.80;99.90
12893;DHT22;6514;48.606;9.222;2024-03-25T03:41:54;3.70;99.90
12893;DHT22;6514;48.606;9.222;2024-03-25T03:44:21;3.70;99.90
12893;DHT22;6514;48.606;9.222;2024-03-25T03:46:49;3.70;99.90
12893;DHT22;6514;48.606;9.222;2024-03-25T03:49:16;3.70;99.90
12893;DHT22;6514;48.606;9.222;2024-03-25T03:51:43;3.70;99.90
12893;DHT22;6514;48.606;9.222;2024-03-25T03:54:10;3.70;99.90
12893;DHT22;6514;48.606;9.222;2024-03-25T03:56:36;3.60;99.90
12893;DHT22;6514;48.606;9.222;2024-03-25T03:59:02;3.60;99.90
12893;DHT22;6514;48.606;9.222;2024-03-25T04:01:29;3.70;99.90
12893;DHT22;6514;48.606;9.222;2024-03-25T04:03:56;3.60;99.90
12893;DHT22;6514;48.606;9.222;2024-03-25T04:06:22;3.60;99.90
12893;DHT22;6514;48.606;9.222;2024-03-25T04:08:50;3.60;99.90
12893;DHT22;6514;48.606;9.222;2024-03-25T04:11:16;3.60;99.90
12893;DHT22;6514;48.606;9.222;2024-03-25T04:13:43;3.60;99.90
12893;DHT22;6514;48.606;9.222;2024-03-25T04:16:09;3.60;99.90
12893;DHT22;6514;48.606;9.222;2024-03-25T04:18:36;3.60;99.90
12893;DHT22;6514;48.606;9.222;2024-03-25T04:21:02;3.60;99.90
12893;DHT22;6514;48.606;9.222;2024-03-25T04:23:29;3.60;99.90
12893;DHT22;6514;48.606;9.222;2024-03-25T04:26:00;3.60;99.90
12893;DHT22;6514;48.606;9.222;2024-03-25T04:28:27;3.60;99.90
12893;DHT22;6514;48.606;9.222;2024-03-25T04:30:53;3.60;99.90
12893;DHT22;6514;48.606;9.222;2024-03-25T04:33:21;3.60;99.90
12893;DHT22;6514;48.606;9.222;2024-03-25T04:35:47;3.90;99.90
12893;DHT22;6514;48.606;9.222;2024-03-25T04:38:16;3.60;99.90
12893;DHT22;6514;48.606;9.222;2024-03-25T04:40:42;3.60;99.90
12893;DHT22;6514;48.606;9.222;2024-03-25T04:43:09;3.60;99.90
12893;DHT22;6514;48.606;9.222;2024-03-25T04:45:38;3.50;99.90
12893;DHT22;6514;48.606;9.222;2024-03-25T04:48:04;3.60;99.90
12893;DHT22;6514;48.606;9.222;2024-03-25T04:50:30;3.50;99.90
12893;DHT22;6514;48.606;9.222;2024-03-25T04:52:56;3.60;99.90
12893;DHT22;6514;48.606;9.222;2024-03-25T04:55:22;3.50;99.90
12893;DHT22;6514;48.606;9.222;2024-03-25T04:57:48;3.50;99.90
12893;DHT22;6514;48.606;9.222;2024-03-25T05:00:16;3.50;99.90
12893;DHT22;6514;48.606;9.222;2024-03-25T05:02:42;3.50;99.90
12893;DHT22;6514;48.606;9.222;2024-03-25T05:05:08;3.50;99.90
12893;DHT22;6514;48.606;9.222;2024-03-25T05:07:34;3.50;99.90
12893;DHT22;6514;48.606;9.222;2024-03-25T05:10:00;3.50;99.90
12893;DHT22;6514;48.606;9.222;2024-03-25T05:12:25;3.50;99.90
12893;DHT22;6514;48.606;9.222;2024-03-25T05:14:52;3.60;99.90
12893;DHT22;6514;48.606;9.222;2024-03-25T05:17:19;3.50;99.90
12893;DHT22;6514;48.606;9.222;2024-03-25T05:19:45;3.50;99.90
12893;DHT22;6514;48.606;9.222;2024-03-25T05:22:11;3.50;99.90
12893;DHT22;6514;48.606;9.222;2024-03-25T05:24:37;3.50;99.90
12893;DHT22;6514;48.606;9.222;2024-03-25T05:27:03;3.50;99.90
12893;DHT22;6514;48.606;9.222;2024-03-25T05:29:29;3.50;99.90
12893;DHT22;6514;48.606;9.222;2024-03-25T05:31:59;3.50;99.90
12893;DHT22;6514;48.606;9.222;2024-03-25T05:34:27;3.50;99.90
12893;DHT22;6514;48.606;9.222;2024-03-25T05:36:54;3.40;99.90
12893;DHT22;6514;48.606;9.222;2024-03-25T05:39:20;3.50;99.90
12893;DHT22;6514;48.606;9.222;2024-03-25T05:41:46;3.50;99.90
12893;DHT22;6514;48.606;9.222;2024-03-25T05:44:12;3.60;99.90
12893;DHT22;6514;48.606;9.222;2024-03-25T05:46:38;3.50;99.90
12893;DHT22;6514;48.606;9.222;2024-03-25T05:49:04;3.60;99.90
12893;DHT22;6514;48.606;9.222;2024-03-25T05:51:32;3.60;99.90
12893;DHT22;6514;48.606;9.222;2024-03-25T05:53:59;3.60;99.90
12893;DHT22;6514;48.606;9.222;2024-03-25T05:56:25;3.60;99.90
12893;DHT22;6514;48.606;9.222;2024-03-25T05:58:51;3.60;99.90
12893;DHT22;6514;48.606;9.222;2024-03-25T06:01:16;3.70;99.90
12893;DHT22;6514;48.606;9.222;2024-03-25T06:03:42;3.70;99.90
12893;DHT22;6514;48.606;9.222;2024-03-25T06:06:08;3.80;99.90
12893;DHT22;6514;48.606;9.222;2024-03-25T06:08:35;3.80;99.90
12893;DHT22;6514;48.606;9.222;2024-03-25T06:11:02;3.90;99.90
12893;DHT22;6514;48.606;9.222;2024-03-25T06:13:28;4.00;99.90
12893;DHT22;6514;48.606;9.222;2024-03-25T06:15:54;4.00;99.90
12893;DHT22;6514;48.606;9.222;2024-03-25T06:18:19;4.10;99.90
12893;DHT22;6514;48.606;9.222;2024-03-25T06:20:45;4.20;99.90
12893;DHT22;6514;48.606;9.222;2024-03-25T06:23:21;4.20;99.90
12893;DHT22;6514;48.606;9.222;2024-03-25T06:25:49;4.40;99.90
12893;DHT22;6514;48.606;9.222;2024-03-25T06:28:15;4.60;99.90
12893;DHT22;6514;48.606;9.222;2024-03-25T06:30:41;4.60;99.90
12893;DHT22;6514;48.606;9.222;2024-03-25T06:33:25;4.80;99.90
12893;DHT22;6514;48.606;9.222;2024-03-25T06:36:09;4.90;99.90
12893;DHT22;6514;48.606;9.222;2024-03-25T06:38:35;5.00;99.90
12893;DHT22;6514;48.606;9.222;2024-03-25T06:41:02;5.20;99.90
12893;DHT22;6514;48.606;9.222;2024-03-25T06:43:28;5.30;99.90
12893;DHT22;6514;48.606;9.222;2024-03-25T06:45:54;5.40;99.90
12893;DHT22;6514;48.606;9.222;2024-03-25T06:48:20;5.50;99.90
12893;DHT22;6514;48.606;9.222;2024-03-25T06:50:52;5.50;99.90
12893;DHT22;6514;48.606;9.222;2024-03-25T06:53:18;5.50;99.90
12893;DHT22;6514;48.606;9.222;2024-03-25T06:55:51;5.50;99.90
12893;DHT22;6514;48.606;9.222;2024-03-25T06:58:19;5.50;99.90
12893;DHT22;6514;48.606;9.222;2024-03-25T07:00:45;5.50;99.90
12893;DHT22;6514;48.606;9.222;2024-03-25T07:03:10;5.60;99.90
12893;DHT22;6514;48.606;9.222;2024-03-25T07:05:36;5.60;99.90
12893;DHT22;6514;48.606;9.222;2024-03-25T07:08:02;5.60;99.90
12893;DHT22;6514;48.606;9.222;2024-03-25T07:10:28;6.00;99.90
12893;DHT22;6514;48.606;9.222;2024-03-25T07:12:54;5.80;99.90
12893;DHT22;6514;48.606;9.222;2024-03-25T07:15:21;5.80;99.90
12893;DHT22;6514;48.606;9.222;2024-03-25T07:17:47;5.90;99.90
12893;DHT22;6514;48.606;9.222;2024-03-25T07:20:13;6.00;99.90
12893;DHT22;6514;48.606;9.222;2024-03-25T07:22:39;6.10;99.90
12893;DHT22;6514;48.606;9.222;2024-03-25T07:25:06;6.20;99.90
12893;DHT22;6514;48.606;9.222;2024-03-25T07:27:32;6.30;99.90
12893;DHT22;6514;48.606;9.222;2024-03-25T07:29:58;6.40;99.90
12893;DHT22;6514;48.606;9.222;2024-03-25T07:32:25;6.40;99.90
12893;DHT22;6514;48.606;9.222;2024-03-25T07:34:51;6.40;99.90
12893;DHT22;6514;48.606;9.222;2024-03-25T07:37:17;6.50;99.90
12893;DHT22;6514;48.606;9.222;2024-03-25T07:39:43;6.60;99.90
12893;DHT22;6514;48.606;9.222;2024-03-25T07:42:11;6.80;99.90
12893;DHT22;6514;48.606;9.222;2024-03-25T07:44:37;7.30;99.90
12893;DHT22;6514;48.606;9.222;2024-03-25T07:47:03;7.60;99.90
12893;DHT22;6514;48.606;9.222;2024-03-25T07:49:30;7.80;99.90
12893;DHT22;6514;48.606;9.222;2024-03-25T07:51:56;7.80;99.90
12893;DHT22;6514;48.606;9.222;2024-03-25T07:54:22;8.20;99.90
12893;DHT22;6514;48.606;9.222;2024-03-25T07:56:48;8.90;99.90
12893;DHT22;6514;48.606;9.222;2024-03-25T07:59:14;9.60;99.90
12893;DHT22;6514;48.606;9.222;2024-03-25T08:01:40;10.10;99.90
12893;DHT22;6514;48.606;9.222;2024-03-25T08:04:06;10.50;99.90
12893;DHT22;6514;48.606;9.222;2024-03-25T08:06:33;10.40;99.90
12893;DHT22;6514;48.606;9.222;2024-03-25T08:08:59;10.30;99.90
12893;DHT22;6514;48.606;9.222;2024-03-25T08:11:25;10.20;99.90
12893;DHT22;6514;48.606;9.222;2024-03-25T08:13:51;10.40;99.90
12893;DHT22;6514;48.606;9.222;2024-03-25T08:16:17;10.50;99.90
12893;DHT22;6514;48.606;9.222;2024-03-25T08:18:42;10.90;99.90
12893;DHT22;6514;48.606;9.222;2024-03-25T08:21:08;11.10;99.90
12893;DHT22;6514;48.606;9.222;2024-03-25T08:23:35;11.50;99.90
12893;DHT22;6514;48.606;9.222;2024-03-25T08:26:01;11.80;99.90
12893;DHT22;6514;48.606;9.222;2024-03-25T08:28:27;11.90;99.90
12893;DHT22;6514;48.606;9.222;2024-03-25T08:30:53;12.20;99.90
12893;DHT22;6514;48.606;9.222;2024-03-25T08:33:19;12.30;99.90
12893;DHT22;6514;48.606;9.222;2024-03-25T08:35:45;12.30;99.90
12893;DHT22;6514;48.606;9.222;2024-03-25T08:38:11;12.60;99.90
12893;DHT22;6514;48.606;9.222;2024-03-25T08:40:38;12.90;99.90
12893;DHT22;6514;48.606;9.222;2024-03-25T08:43:04;13.20;99.90
12893;DHT22;6514;48.606;9.222;2024-03-25T08:45:30;13.50;99.90
12893;DHT22;6514;48.606;9.222;2024-03-25T08:47:56;13.80;99.90
12893;DHT22;6514;48.606;9.222;2024-03-25T08:50:22;14.10;99.90
12893;DHT22;6514;48.606;9.222;2024-03-25T08:52:48;14.60;99.90
12893;DHT22;6514;48.606;9.222;2024-03-25T08:55:14;15.00;99.90
12893;DHT22;6514;48.606;9.222;2024-03-25T08:57:41;15.30;99.90
12893;DHT22;6514;48.606;9.222;2024-03-25T09:00:08;15.70;99.90
12893;DHT22;6514;48.606;9.222;2024-03-25T09:02:34;15.90;99.90
12893;DHT22;6514;48.606;9.222;2024-03-25T09:05:00;16.00;99.90
12893;DHT22;6514;48.606;9.222;2024-03-25T09:07:26;16.00;99.90
12893;DHT22;6514;48.606;9.222;2024-03-25T09:09:52;15.00;99.90
12893;DHT22;6514;48.606;9.222;2024-03-25T09:12:36;16.20;99.90
12893;DHT22;6514;48.606;9.222;2024-03-25T09:15:04;16.10;99.90
12893;DHT22;6514;48.606;9.222;2024-03-25T09:17:30;15.80;99.90
12893;DHT22;6514;48.606;9.222;2024-03-25T09:19:56;15.30;99.90
12893;DHT22;6514;48.606;9.222;2024-03-25T09:22:22;15.00;99.90
12893;DHT22;6514;48.606;9.222;2024-03-25T09:24:48;14.50;99.90
12893;DHT22;6514;48.606;9.222;2024-03-25T09:27:14;14.10;99.90
12893;DHT22;6514;48.606;9.222;2024-03-25T09:29:40;13.60;99.90
12893;DHT22;6514;48.606;9.222;2024-03-25T09:32:08;13.50;99.90
12893;DHT22;6514;48.606;9.222;2024-03-25T09:34:34;13.40;99.90
12893;DHT22;6514;48.606;9.222;2024-03-25T09:37:00;13.40;99.90
12893;DHT22;6514;48.606;9.222;2024-03-25T09:39:25;13.20;99.90
12893;DHT22;6514;48.606;9.222;2024-03-25T09:41:55;13.10;99.90
12893;DHT22;6514;48.606;9.222;2024-03-25T09:44:22;12.90;99.90
12893;DHT22;6514;48.606;9.222;2024-03-25T09:46:50;12.70;99.90
12893;DHT22;6514;48.606;9.222;2024-03-25T09:49:17;12.50;99.90
12893;DHT22;6514;48.606;9.222;2024-03-25T09:51:44;12.60;99.90
12893;DHT22;6514;48.606;9.222;2024-03-25T09:54:10;12.60;99.90
12893;DHT22;6514;48.606;9.222;2024-03-25T09:56:38;12.80;99.90
12893;DHT22;6514;48.606;9.222;2024-03-25T09:59:04;12.70;99.90
12893;DHT22;6514;48.606;9.222;2024-03-25T10:01:30;12.80;99.90
12893;DHT22;6514;48.606;9.222;2024-03-25T10:03:56;12.70;99.90
12893;DHT22;6514;48.606;9.222;2024-03-25T10:06:24;12.70;99.90
12893;DHT22;6514;48.606;9.222;2024-03-25T10:08:53;12.70;99.90
12893;DHT22;6514;48.606;9.222;2024-03-25T10:11:20;12.50;99.90
12893;DHT22;6514;48.606;9.222;2024-03-25T10:13:46;12.40;99.90
12893;DHT22;6514;48.606;9.222;2024-03-25T10:16:12;12.40;99.90
12893;DHT22;6514;48.606;9.222;2024-03-25T10:18:38;12.20;99.90
12893;DHT22;6514;48.606;9.222;2024-03-25T10:21:04;11.90;99.90
12893;DHT22;6514;48.606;9.222;2024-03-25T10:23:31;11.80;99.90
12893;DHT22;6514;48.606;9.222;2024-03-25T10:25:57;11.60;99.90
12893;DHT22;6514;48.606;9.222;2024-03-25T10:28:23;11.60;99.90
12893;DHT22;6514;48.606;9.222;2024-03-25T10:30:49;11.60;99.90
12893;DHT22;6514;48.606;9.222;2024-03-25T10:33:15;11.70;99.90
12893;DHT22;6514;48.606;9.222;2024-03-25T10:35:41;11.70;99.90
12893;DHT22;6514;48.606;9.222;2024-03-25T10:38:11;11.70;99.90
12893;DHT22;6514;48.606;9.222;2024-03-25T10:40:39;11.70;99.90
12893;DHT22;6514;48.606;9.222;2024-03-25T10:43:11;11.80;99.90
12893;DHT22;6514;48.606;9.222;2024-03-25T10:45:39;11.80;99.90
12893;DHT22;6514;48.606;9.222;2024-03-25T10:48:11;11.80;99.90
12893;DHT22;6514;48.606;9.222;2024-03-25T10:50:38;11.80;99.90
12893;DHT22;6514;48.606;9.222;2024-03-25T10:53:05;12.00;99.90
12893;DHT22;6514;48.606;9.222;2024-03-25T10:55:32;12.70;99.90
12893;DHT22;6514;48.606;9.222;2024-03-25T10:58:02;13.50;99.90
12893;DHT22;6514;48.606;9.222;2024-03-25T11:00:29;14.20;99.90
12893;DHT22;6514;48.606;9.222;2024-03-25T11:02:56;14.70;99.90
12893;DHT22;6514;48.606;9.222;2024-03-25T11:05:23;15.60;99.90
12893;DHT22;6514;48.606;9.222;2024-03-25T11:07:49;16.30;99.90
12893;DHT22;6514;48.606;9.222;2024-03-25T11:10:15;16.80;99.90
12893;DHT22;6514;48.606;9.222;2024-03-25T11:12:42;17.20;99.90
12893;DHT22;6514;48.606;9.222;2024-03-25T11:15:09;17.50;99.90
12893;DHT22;6514;48.606;9.222;2024-03-25T11:17:36;17.60;99.90
12893;DHT22;6514;48.606;9.222;2024-03-25T11:20:07;18.20;99.90
12893;DHT22;6514;48.606;9.222;2024-03-25T11:22:33;18.60;99.90
12893;DHT22;6514;48.606;9.222;2024-03-25T11:25:05;18.90;99.90
12893;DHT22;6514;48.606;9.222;2024-03-25T11:27:33;19.10;99.90
12893;DHT22;6514;48.606;9.222;2024-03-25T11:29:59;19.00;99.90
12893;DHT22;6514;48.606;9.222;2024-03-25T11:32:27;18.70;99.90
12893;DHT22;6514;48.606;9.222;2024-03-25T11:34:53;18.50;99.90
12893;DHT22;6514;48.606;9.222;2024-03-25T11:37:19;18.50;99.90
12893;DHT22;6514;48.606;9.222;2024-03-25T11:39:45;18.50;99.90
12893;DHT22;6514;48.606;9.222;2024-03-25T11:42:13;18.40;99.90
12893;DHT22;6514;48.606;9.222;2024-03-25T11:44:39;18.20;99.90
12893;DHT22;6514;48.606;9.222;2024-03-25T11:47:05;18.10;99.90
12893;DHT22;6514;48.606;9.222;2024-03-25T11:49:38;18.30;99.90
12893;DHT22;6514;48.606;9.222;2024-03-25T11:52:06;18.40;99.90
12893;DHT22;6514;48.606;9.222;2024-03-25T11:54:32;18.30;99.90
12893;DHT22;6514;48.606;9.222;2024-03-25T11:56:58;18.30;99.90
12893;DHT22;6514;48.606;9.222;2024-03-25T11:59:24;18.20;99.00
12893;DHT22;6514;48.606;9.222;2024-03-25T12:01:51;18.40;99.90
12893;DHT22;6514;48.606;9.222;2024-03-25T12:04:18;18.50;99.90
12893;DHT22;6514;48.606;9.222;2024-03-25T12:06:45;18.60;99.90
12893;DHT22;6514;48.606;9.222;2024-03-25T12:09:11;19.00;99.90
12893;DHT22;6514;48.606;9.222;2024-03-25T12:11:56;19.00;99.60
12893;DHT22;6514;48.606;9.222;2024-03-25T12:14:22;18.80;99.40
12893;DHT22;6514;48.606;9.222;2024-03-25T12:16:49;18.80;98.80
12893;DHT22;6514;48.606;9.222;2024-03-25T12:19:15;18.70;99.90
12893;DHT22;6514;48.606;9.222;2024-03-25T12:21:41;18.70;98.60
12893;DHT22;6514;48.606;9.222;2024-03-25T12:24:09;18.80;99.90
12893;DHT22;6514;48.606;9.222;2024-03-25T12:26:34;18.70;99.10
12893;DHT22;6514;48.606;9.222;2024-03-25T12:29:00;18.10;98.80
12893;DHT22;6514;48.606;9.222;2024-03-25T12:31:26;17.60;99.90
12893;DHT22;6514;48.606;9.222;2024-03-25T12:33:52;17.40;99.90
12893;DHT22;6514;48.606;9.222;2024-03-25T12:36:20;17.20;99.90
12893;DHT22;6514;48.606;9.222;2024-03-25T12:38:54;17.00;99.60
12893;DHT22;6514;48.606;9.222;2024-03-25T12:41:22;16.90;99.90
12893;DHT22;6514;48.606;9.222;2024-03-25T12:43:50;17.10;99.90
12893;DHT22;6514;48.606;9.222;2024-03-25T12:46:16;17.40;99.90
12893;DHT22;6514;48.606;9.222;2024-03-25T12:48:42;17.80;99.90
12893;DHT22;6514;48.606;9.222;2024-03-25T12:51:12;17.90;99.90
12893;DHT22;6514;48.606;9.222;2024-03-25T12:53:39;18.00;99.90
12893;DHT22;6514;48.606;9.222;2024-03-25T12:56:05;18.00;99.90
12893;DHT22;6514;48.606;9.222;2024-03-25T12:58:32;17.80;99.90
12893;DHT22;6514;48.606;9.222;2024-03-25T13:00:58;17.70;99.90
12893;DHT22;6514;48.606;9.222;2024-03-25T13:03:24;17.90;99.90
12893;DHT22;6514;48.606;9.222;2024-03-25T13:05:50;18.10;99.90
12893;DHT22;6514;48.606;9.222;2024-03-25T13:08:16;18.20;99.90
12893;DHT22;6514;48.606;9.222;2024-03-25T13:10:42;18.30;99.90
12893;DHT22;6514;48.606;9.222;2024-03-25T13:13:08;18.10;99.90
12893;DHT22;6514;48.606;9.222;2024-03-25T13:15:35;18.20;99.90
12893;DHT22;6514;48.606;9.222;2024-03-25T13:18:01;18.30;99.90
12893;DHT22;6514;48.606;9.222;2024-03-25T13:20:27;18.40;99.90
12893;DHT22;6514;48.606;9.222;2024-03-25T13:22:54;18.40;99.90
12893;DHT22;6514;48.606;9.222;2024-03-25T13:25:21;18.50;99.90
12893;DHT22;6514;48.606;9.222;2024-03-25T13:27:47;18.60;99.60
12893;DHT22;6514;48.606;9.222;2024-03-25T13:30:13;18.50;98.10
12893;DHT22;6514;48.606;9.222;2024-03-25T13:32:40;18.10;99.30
12893;DHT22;6514;48.606;9.222;2024-03-25T13:35:06;18.30;99.90
12893;DHT22;6514;48.606;9.222;2024-03-25T13:37:32;18.50;99.80
12893;DHT22;6514;48.606;9.222;2024-03-25T13:39:58;18.70;99.90
12893;DHT22;6514;48.606;9.222;2024-03-25T13:42:24;18.60;99.50
12893;DHT22;6514;48.606;9.222;2024-03-25T13:44:50;18.60;99.90
12893;DHT22;6514;48.606;9.222;2024-03-25T13:47:16;18.30;99.90
12893;DHT22;6514;48.606;9.222;2024-03-25T13:49:43;18.10;99.90
12893;DHT22;6514;48.606;9.222;2024-03-25T13:52:09;17.90;99.90
12893;DHT22;6514;48.606;9.222;2024-03-25T13:54:35;18.20;99.90
12893;DHT22;6514;48.606;9.222;2024-03-25T13:57:01;18.40;99.80
12893;DHT22;6514;48.606;9.222;2024-03-25T13:59:27;18.40;99.90
12893;DHT22;6514;48.606;9.222;2024-03-25T14:01:53;18.20;99.80
12893;DHT22;6514;48.606;9.222;2024-03-25T14:04:19;17.80;99.90
12893;DHT22;6514;48.606;9.222;2024-03-25T14:06:47;17.50;99.30
12893;DHT22;6514;48.606;9.222;2024-03-25T14:09:23;17.50;99.90
12893;DHT22;6514;48.606;9.222;2024-03-25T14:11:50;17.30;99.70
12893;DHT22;6514;48.606;9.222;2024-03-25T14:14:16;17.00;99.90
12893;DHT22;6514;48.606;9.222;2024-03-25T14:16:41;16.70;99.90
12893;DHT22;6514;48.606;9.222;2024-03-25T14:19:07;16.70;99.90
12893;DHT22;6514;48.606;9.222;2024-03-25T14:21:33;16.60;99.90
12893;DHT22;6514;48.606;9.222;2024-03-25T14:24:00;16.50;99.90
12893;DHT22;6514;48.606;9.222;2024-03-25T14:26:26;16.60;99.90
12893;DHT22;6514;48.606;9.222;2024-03-25T14:28:52;16.60;99.90
12893;DHT22;6514;48.606;9.222;2024-03-25T14:31:18;16.60;99.90
12893;DHT22;6514;48.606;9.222;2024-03-25T14:33:44;16.70;99.90
12893;DHT22;6514;48.606;9.222;2024-03-25T14:36:10;16.70;99.70
12893;DHT22;6514;48.606;9.222;2024-03-25T14:38:36;16.40;99.90
12893;DHT22;6514;48.606;9.222;2024-03-25T14:41:03;16.30;99.90
12893;DHT22;6514;48.606;9.222;2024-03-25T14:43:29;16.20;99.90
12893;DHT22;6514;48.606;9.222;2024-03-25T14:45:55;16.10;99.90
12893;DHT22;6514;48.606;9.222;2024-03-25T14:48:21;16.00;99.90
12893;DHT22;6514;48.606;9.222;2024-03-25T14:50:47;15.90;99.90
12893;DHT22;6514;48.606;9.222;2024-03-25T14:53:13;16.10;99.90
12893;DHT22;6514;48.606;9.222;2024-03-25T14:55:39;16.20;99.90
12893;DHT22;6514;48.606;9.222;2024-03-25T14:58:06;16.50;99.90
12893;DHT22;6514;48.606;9.222;2024-03-25T15:00:32;16.50;99.90
12893;DHT22;6514;48.606;9.222;2024-03-25T15:02:57;16.30;99.90
12893;DHT22;6514;48.606;9.222;2024-03-25T15:05:23;16.20;99.90
12893;DHT22;6514;48.606;9.222;2024-03-25T15:07:49;16.10;99.90
12893;DHT22;6514;48.606;9.222;2024-03-25T15:10:15;16.00;99.90
12893;DHT22;6514;48.606;9.222;2024-03-25T15:12:41;15.80;99.90
12893;DHT22;6514;48.606;9.222;2024-03-25T15:15:09;15.80;99.90
12893;DHT22;6514;48.606;9.222;2024-03-25T15:17:35;15.90;99.90
12893;DHT22;6514;48.606;9.222;2024-03-25T15:20:01;15.90;99.90
12893;DHT22;6514;48.606;9.222;2024-03-25T15:22:28;15.80;99.90
12893;DHT22;6514;48.606;9.222;2024-03-25T15:24:54;15.60;99.90
12893;DHT22;6514;48.606;9.222;2024-03-25T15:27:20;15.50;99.90
12893;DHT22;6514;48.606;9.222;2024-03-25T15:29:46;15.60;99.90
12893;DHT22;6514;48.606;9.222;2024-03-25T15:32:13;15.50;99.90
12893;DHT22;6514;48.606;9.222;2024-03-25T15:34:39;15.50;99.90
12893;DHT22;6514;48.606;9.222;2024-03-25T15:37:05;15.40;99.90
12893;DHT22;6514;48.606;9.222;2024-03-25T15:39:31;15.40;99.90
12893;DHT22;6514;48.606;9.222;2024-03-25T15:41:57;15.40;99.90
12893;DHT22;6514;48.606;9.222;2024-03-25T15:44:23;15.40;99.90
12893;DHT22;6514;48.606;9.222;2024-03-25T15:46:49;15.50;96.70
12893;DHT22;6514;48.606;9.222;2024-03-25T15:49:16;15.50;97.60
12893;DHT22;6514;48.606;9.222;2024-03-25T15:51:42;15.40;97.90